sensor_id;sensor_type;location;lat;lon;timestamp;P1;durP1;ratioP1;P2;durP2;ratioP2
51800;SDS011;37855;53.204;6.568;2023-02-11T00:00:06;16.83;;;4.80;;
51800;SDS011;37855;53.204;6.568;2023-02-11T00:02:44;19.13;;;5.00;;
51800;SDS011;37855;53.204;6.568;2023-02-11T00:05:10;22.90;;;5.40;;
51800;SDS011;37855;53.204;6.568;2023-02-11T00:07:39;21.80;;;4.78;;
51800;SDS011;37855;53.204;6.568;2023-02-11T00:10:05;22.77;;;4.75;;
51800;SDS011;37855;53.204;6.568;2023-02-11T00:12:32;21.33;;;5.10;;
51800;SDS011;37855;53.204;6.568;2023-02-11T00:14:59;18.13;;;4.47;;
51800;SDS011;37855;53.204;6.568;2023-02-11T00:17:27;23.63;;;4.88;;
51800;SDS011;37855;53.204;6.568;2023-02-11T00:19:53;19.98;;;5.18;;
51800;SDS011;37855;53.204;6.568;2023-02-11T00:22:18;17.80;;;5.03;;
51800;SDS011;37855;53.204;6.568;2023-02-11T00:24:44;17.73;;;4.07;;
51800;SDS011;37855;53.204;6.568;2023-02-11T00:27:10;18.30;;;5.20;;
51800;SDS011;37855;53.204;6.568;2023-02-11T00:29:36;18.80;;;4.80;;
51800;SDS011;37855;53.204;6.568;2023-02-11T00:32:04;20.17;;;5.07;;
51800;SDS011;37855;53.204;6.568;2023-02-11T00:34:30;20.40;;;5.10;;
51800;SDS011;37855;53.204;6.568;2023-02-11T00:36:57;22.67;;;4.93;;
51800;SDS011;37855;53.204;6.568;2023-02-11T00:39:23;22.52;;;5.88;;
51800;SDS011;37855;53.204;6.568;2023-02-11T00:41:48;24.00;;;6.30;;
51800;SDS011;37855;53.204;6.568;2023-02-11T00:44:17;24.85;;;5.50;;
51800;SDS011;37855;53.204;6.568;2023-02-11T00:46:43;15.73;;;4.83;;
51800;SDS011;37855;53.204;6.568;2023-02-11T00:49:11;22.05;;;5.70;;
51800;SDS011;37855;53.204;6.568;2023-02-11T00:51:37;22.30;;;6.13;;
51800;SDS011;37855;53.204;6.568;2023-02-11T00:54:03;22.13;;;5.30;;
51800;SDS011;37855;53.204;6.568;2023-02-11T00:56:30;22.30;;;5.72;;
51800;SDS011;37855;53.204;6.568;2023-02-11T01:02:02;19.73;;;6.23;;
51800;SDS011;37855;53.204;6.568;2023-02-11T01:04:28;21.55;;;5.47;;
51800;SDS011;37855;53.204;6.568;2023-02-11T01:06:53;15.20;;;5.17;;
51800;SDS011;37855;53.204;6.568;2023-02-11T01:09:19;30.02;;;5.88;;
51800;SDS011;37855;53.204;6.568;2023-02-11T01:11:45;24.47;;;6.23;;
51800;SDS011;37855;53.204;6.568;2023-02-11T01:14:11;23.53;;;5.77;;
51800;SDS011;37855;53.204;6.568;2023-02-11T01:16:37;20.17;;;5.47;;
51800;SDS011;37855;53.204;6.568;2023-02-11T01:19:03;22.52;;;6.50;;
51800;SDS011;37855;53.204;6.568;2023-02-11T01:21:34;21.50;;;6.03;;
51800;SDS011;37855;53.204;6.568;2023-02-11T01:24:00;21.80;;;5.93;;
51800;SDS011;37855;53.204;6.568;2023-02-11T01:26:25;22.45;;;5.85;;
51800;SDS011;37855;53.204;6.568;2023-02-11T01:28:51;17.73;;;5.60;;
51800;SDS011;37855;53.204;6.568;2023-02-11T01:31:17;16.02;;;6.57;;
51800;SDS011;37855;53.204;6.568;2023-02-11T01:33:42;19.70;;;6.13;;
51800;SDS011;37855;53.204;6.568;2023-02-11T01:36:09;20.50;;;6.10;;
51800;SDS011;37855;53.204;6.568;2023-02-11T01:38:36;18.80;;;6.20;;
51800;SDS011;37855;53.204;6.568;2023-02-11T01:41:06;26.60;;;8.05;;
51800;SDS011;37855;53.204;6.568;2023-02-11T01:43:38;22.63;;;6.93;;
51800;SDS011;37855;53.204;6.568;2023-02-11T01:46:13;22.05;;;6.47;;
51800;SDS011;37855;53.204;6.568;2023-02-11T01:49:02;20.77;;;6.68;;
51800;SDS011;37855;53.204;6.568;2023-02-11T01:51:39;23.47;;;6.80;;
51800;SDS011;37855;53.204;6.568;2023-02-11T01:54:17;23.20;;;7.65;;
51800;SDS011;37855;53.204;6.568;2023-02-11T01:57:04;23.30;;;7.30;;
51800;SDS011;37855;53.204;6.568;2023-02-11T02:07:51;23.92;;;7.45;;
51800;SDS011;37855;53.204;6.568;2023-02-11T02:10:34;21.88;;;7.38;;
51800;SDS011;37855;53.204;6.568;2023-02-11T02:13:01;20.92;;;6.60;;
51800;SDS011;37855;53.204;6.568;2023-02-11T02:18:04;27.37;;;7.20;;
51800;SDS011;37855;53.204;6.568;2023-02-11T02:23:56;26.58;;;7.88;;
51800;SDS011;37855;53.204;6.568;2023-02-11T02:32:51;24.70;;;7.80;;
51800;SDS011;37855;53.204;6.568;2023-02-11T02:38:12;18.95;;;7.38;;
51800;SDS011;37855;53.204;6.568;2023-02-11T02:43:16;23.38;;;8.05;;
51800;SDS011;37855;53.204;6.568;2023-02-11T02:45:43;25.67;;;8.10;;
51800;SDS011;37855;53.204;6.568;2023-02-11T02:48:23;22.42;;;8.60;;
51800;SDS011;37855;53.204;6.568;2023-02-11T03:02:14;29.98;;;8.23;;
51800;SDS011;37855;53.204;6.568;2023-02-11T03:04:59;26.17;;;8.63;;
51800;SDS011;37855;53.204;6.568;2023-02-11T03:12:37;19.50;;;8.60;;
51800;SDS011;37855;53.204;6.568;2023-02-11T03:15:06;26.65;;;9.70;;
51800;SDS011;37855;53.204;6.568;2023-02-11T03:17:32;23.42;;;9.00;;
51800;SDS011;37855;53.204;6.568;2023-02-11T03:20:00;26.70;;;9.27;;
51800;SDS011;37855;53.204;6.568;2023-02-11T03:22:32;19.90;;;9.27;;
51800;SDS011;37855;53.204;6.568;2023-02-11T03:25:02;22.45;;;9.48;;
51800;SDS011;37855;53.204;6.568;2023-02-11T03:27:32;24.77;;;9.02;;
51800;SDS011;37855;53.204;6.568;2023-02-11T03:32:48;27.48;;;9.80;;
51800;SDS011;37855;53.204;6.568;2023-02-11T03:35:23;27.93;;;10.77;;
51800;SDS011;37855;53.204;6.568;2023-02-11T03:38:00;22.95;;;9.43;;
51800;SDS011;37855;53.204;6.568;2023-02-11T03:40:34;27.35;;;10.60;;
51800;SDS011;37855;53.204;6.568;2023-02-11T03:43:11;26.75;;;10.35;;
51800;SDS011;37855;53.204;6.568;2023-02-11T03:45:44;26.95;;;10.32;;
51800;SDS011;37855;53.204;6.568;2023-02-11T03:48:15;29.17;;;11.07;;
51800;SDS011;37855;53.204;6.568;2023-02-11T03:50:45;25.55;;;10.07;;
51800;SDS011;37855;53.204;6.568;2023-02-11T03:53:13;26.75;;;10.90;;
51800;SDS011;37855;53.204;6.568;2023-02-11T03:55:39;23.75;;;9.85;;
51800;SDS011;37855;53.204;6.568;2023-02-11T03:58:07;27.02;;;11.68;;
51800;SDS011;37855;53.204;6.568;2023-02-11T04:00:40;26.90;;;11.30;;
51800;SDS011;37855;53.204;6.568;2023-02-11T04:03:07;27.08;;;10.85;;
51800;SDS011;37855;53.204;6.568;2023-02-11T04:05:34;30.02;;;10.85;;
51800;SDS011;37855;53.204;6.568;2023-02-11T04:08:00;29.40;;;11.30;;
51800;SDS011;37855;53.204;6.568;2023-02-11T04:10:26;32.03;;;11.97;;
51800;SDS011;37855;53.204;6.568;2023-02-11T04:12:55;27.30;;;11.40;;
51800;SDS011;37855;53.204;6.568;2023-02-11T04:15:21;28.50;;;12.18;;
51800;SDS011;37855;53.204;6.568;2023-02-11T04:17:50;23.38;;;11.48;;
51800;SDS011;37855;53.204;6.568;2023-02-11T04:20:16;23.10;;;11.10;;
51800;SDS011;37855;53.204;6.568;2023-02-11T04:22:42;27.77;;;12.52;;
51800;SDS011;37855;53.204;6.568;2023-02-11T04:25:10;30.38;;;11.88;;
51800;SDS011;37855;53.204;6.568;2023-02-11T04:27:36;32.25;;;11.95;;
51800;SDS011;37855;53.204;6.568;2023-02-11T04:30:02;29.33;;;11.80;;
51800;SDS011;37855;53.204;6.568;2023-02-11T04:32:30;30.10;;;13.10;;
51800;SDS011;37855;53.204;6.568;2023-02-11T04:34:56;27.33;;;12.60;;
51800;SDS011;37855;53.204;6.568;2023-02-11T04:37:21;27.93;;;12.23;;
51800;SDS011;37855;53.204;6.568;2023-02-11T04:42:12;30.23;;;12.93;;
51800;SDS011;37855;53.204;6.568;2023-02-11T04:44:38;30.23;;;12.80;;
51800;SDS011;37855;53.204;6.568;2023-02-11T04:47:03;31.65;;;13.05;;
51800;SDS011;37855;53.204;6.568;2023-02-11T04:49:29;28.53;;;12.47;;
51800;SDS011;37855;53.204;6.568;2023-02-11T04:51:55;29.95;;;13.52;;
51800;SDS011;37855;53.204;6.568;2023-02-11T04:54:21;26.43;;;12.63;;
51800;SDS011;37855;53.204;6.568;2023-02-11T04:56:46;34.28;;;14.35;;
51800;SDS011;37855;53.204;6.568;2023-02-11T04:59:14;29.40;;;13.00;;
51800;SDS011;37855;53.204;6.568;2023-02-11T05:01:39;29.50;;;12.43;;
51800;SDS011;37855;53.204;6.568;2023-02-11T05:04:05;28.73;;;13.70;;
51800;SDS011;37855;53.204;6.568;2023-02-11T05:06:31;25.50;;;11.90;;
51800;SDS011;37855;53.204;6.568;2023-02-11T05:08:56;31.23;;;13.50;;
51800;SDS011;37855;53.204;6.568;2023-02-11T05:11:22;30.90;;;13.87;;
51800;SDS011;37855;53.204;6.568;2023-02-11T05:13:49;28.05;;;12.85;;
51800;SDS011;37855;53.204;6.568;2023-02-11T05:18:50;27.50;;;12.98;;
51800;SDS011;37855;53.204;6.568;2023-02-11T05:21:17;29.20;;;13.33;;
51800;SDS011;37855;53.204;6.568;2023-02-11T05:23:43;32.85;;;13.55;;
51800;SDS011;37855;53.204;6.568;2023-02-11T05:26:10;30.08;;;12.80;;
51800;SDS011;37855;53.204;6.568;2023-02-11T05:28:39;30.40;;;13.48;;
51800;SDS011;37855;53.204;6.568;2023-02-11T05:31:06;30.50;;;12.90;;
51800;SDS011;37855;53.204;6.568;2023-02-11T05:33:31;30.57;;;13.43;;
51800;SDS011;37855;53.204;6.568;2023-02-11T05:36:02;31.98;;;13.57;;
51800;SDS011;37855;53.204;6.568;2023-02-11T05:38:30;27.73;;;12.07;;
51800;SDS011;37855;53.204;6.568;2023-02-11T05:40:55;30.00;;;12.77;;
51800;SDS011;37855;53.204;6.568;2023-02-11T05:43:21;29.60;;;13.32;;
51800;SDS011;37855;53.204;6.568;2023-02-11T05:45:47;27.90;;;13.40;;
51800;SDS011;37855;53.204;6.568;2023-02-11T05:48:13;26.57;;;11.57;;
51800;SDS011;37855;53.204;6.568;2023-02-11T05:50:39;30.65;;;12.52;;
51800;SDS011;37855;53.204;6.568;2023-02-11T05:53:05;27.67;;;12.70;;
51800;SDS011;37855;53.204;6.568;2023-02-11T05:55:34;28.00;;;11.20;;
51800;SDS011;37855;53.204;6.568;2023-02-11T05:57:59;29.13;;;12.60;;
51800;SDS011;37855;53.204;6.568;2023-02-11T06:00:25;23.87;;;11.83;;
51800;SDS011;37855;53.204;6.568;2023-02-11T06:02:52;28.50;;;12.95;;
51800;SDS011;37855;53.204;6.568;2023-02-11T06:05:18;28.35;;;11.73;;
51800;SDS011;37855;53.204;6.568;2023-02-11T06:07:44;24.90;;;11.50;;
51800;SDS011;37855;53.204;6.568;2023-02-11T06:10:10;26.73;;;12.03;;
51800;SDS011;37855;53.204;6.568;2023-02-11T06:12:39;24.63;;;11.57;;
51800;SDS011;37855;53.204;6.568;2023-02-11T06:15:05;25.47;;;12.13;;
51800;SDS011;37855;53.204;6.568;2023-02-11T06:17:32;26.85;;;12.35;;
51800;SDS011;37855;53.204;6.568;2023-02-11T06:20:02;35.10;;;12.30;;
51800;SDS011;37855;53.204;6.568;2023-02-11T06:22:30;23.77;;;11.80;;
51800;SDS011;37855;53.204;6.568;2023-02-11T06:24:56;28.40;;;11.23;;
51800;SDS011;37855;53.204;6.568;2023-02-11T06:27:22;28.17;;;11.38;;
51800;SDS011;37855;53.204;6.568;2023-02-11T06:29:49;24.02;;;10.88;;
51800;SDS011;37855;53.204;6.568;2023-02-11T06:32:16;24.20;;;11.85;;
51800;SDS011;37855;53.204;6.568;2023-02-11T06:34:42;29.07;;;11.23;;
51800;SDS011;37855;53.204;6.568;2023-02-11T06:37:08;25.40;;;11.15;;
51800;SDS011;37855;53.204;6.568;2023-02-11T06:39:35;25.85;;;11.77;;
51800;SDS011;37855;53.204;6.568;2023-02-11T06:42:01;24.07;;;10.87;;
51800;SDS011;37855;53.204;6.568;2023-02-11T06:44:27;22.23;;;10.35;;
51800;SDS011;37855;53.204;6.568;2023-02-11T06:47:05;25.65;;;11.05;;
51800;SDS011;37855;53.204;6.568;2023-02-11T06:49:31;22.55;;;11.27;;
51800;SDS011;37855;53.204;6.568;2023-02-11T06:52:00;26.08;;;11.10;;
51800;SDS011;37855;53.204;6.568;2023-02-11T06:54:25;22.27;;;11.57;;
51800;SDS011;37855;53.204;6.568;2023-02-11T06:56:51;27.17;;;12.00;;
51800;SDS011;37855;53.204;6.568;2023-02-11T06:59:17;25.38;;;11.30;;
51800;SDS011;37855;53.204;6.568;2023-02-11T07:01:46;21.67;;;11.18;;
51800;SDS011;37855;53.204;6.568;2023-02-11T07:04:12;26.33;;;11.37;;
51800;SDS011;37855;53.204;6.568;2023-02-11T07:06:38;23.30;;;11.63;;
51800;SDS011;37855;53.204;6.568;2023-02-11T07:09:10;25.60;;;10.77;;
51800;SDS011;37855;53.204;6.568;2023-02-11T07:11:36;23.73;;;11.23;;
51800;SDS011;37855;53.204;6.568;2023-02-11T07:24:31;24.17;;;11.23;;
51800;SDS011;37855;53.204;6.568;2023-02-11T07:26:57;26.93;;;12.20;;
51800;SDS011;37855;53.204;6.568;2023-02-11T07:29:22;25.40;;;12.38;;
51800;SDS011;37855;53.204;6.568;2023-02-11T07:31:48;20.83;;;11.77;;
51800;SDS011;37855;53.204;6.568;2023-02-11T07:34:14;26.13;;;12.63;;
51800;SDS011;37855;53.204;6.568;2023-02-11T07:36:39;24.23;;;12.38;;
51800;SDS011;37855;53.204;6.568;2023-02-11T07:39:07;20.47;;;10.87;;
51800;SDS011;37855;53.204;6.568;2023-02-11T07:41:33;25.83;;;11.35;;
51800;SDS011;37855;53.204;6.568;2023-02-11T07:44:00;23.50;;;11.60;;
51800;SDS011;37855;53.204;6.568;2023-02-11T07:46:27;26.33;;;10.77;;
51800;SDS011;37855;53.204;6.568;2023-02-11T07:48:53;21.70;;;10.43;;
51800;SDS011;37855;53.204;6.568;2023-02-11T07:51:21;24.30;;;10.35;;
51800;SDS011;37855;53.204;6.568;2023-02-11T07:53:48;23.92;;;10.95;;
51800;SDS011;37855;53.204;6.568;2023-02-11T07:56:14;20.07;;;10.47;;
51800;SDS011;37855;53.204;6.568;2023-02-11T07:58:41;20.83;;;10.75;;
51800;SDS011;37855;53.204;6.568;2023-02-11T08:01:09;20.60;;;10.82;;
51800;SDS011;37855;53.204;6.568;2023-02-11T08:03:42;18.88;;;10.80;;
51800;SDS011;37855;53.204;6.568;2023-02-11T08:06:15;26.23;;;11.23;;
51800;SDS011;37855;53.204;6.568;2023-02-11T08:08:42;25.20;;;10.57;;
51800;SDS011;37855;53.204;6.568;2023-02-11T08:11:10;27.63;;;11.27;;
51800;SDS011;37855;53.204;6.568;2023-02-11T08:13:42;22.42;;;9.88;;
51800;SDS011;37855;53.204;6.568;2023-02-11T08:16:08;23.17;;;9.82;;
51800;SDS011;37855;53.204;6.568;2023-02-11T08:18:40;22.63;;;9.75;;
51800;SDS011;37855;53.204;6.568;2023-02-11T08:21:08;26.23;;;9.93;;
51800;SDS011;37855;53.204;6.568;2023-02-11T08:23:35;21.90;;;10.50;;
51800;SDS011;37855;53.204;6.568;2023-02-11T08:26:02;22.70;;;9.70;;
51800;SDS011;37855;53.204;6.568;2023-02-11T08:28:36;24.25;;;9.93;;
51800;SDS011;37855;53.204;6.568;2023-02-11T08:31:07;22.95;;;9.48;;
51800;SDS011;37855;53.204;6.568;2023-02-11T08:33:34;29.47;;;9.80;;
51800;SDS011;37855;53.204;6.568;2023-02-11T08:36:00;18.30;;;8.98;;
51800;SDS011;37855;53.204;6.568;2023-02-11T08:38:31;18.10;;;8.73;;
51800;SDS011;37855;53.204;6.568;2023-02-11T08:41:06;21.60;;;9.15;;
51800;SDS011;37855;53.204;6.568;2023-02-11T08:43:33;20.45;;;8.50;;
51800;SDS011;37855;53.204;6.568;2023-02-11T08:46:14;18.77;;;9.67;;
51800;SDS011;37855;53.204;6.568;2023-02-11T08:48:50;20.38;;;9.63;;
51800;SDS011;37855;53.204;6.568;2023-02-11T08:51:17;21.90;;;9.30;;
51800;SDS011;37855;53.204;6.568;2023-02-11T08:53:45;23.02;;;9.75;;
51800;SDS011;37855;53.204;6.568;2023-02-11T08:56:14;23.70;;;9.60;;
51800;SDS011;37855;53.204;6.568;2023-02-11T08:58:41;21.27;;;9.00;;
51800;SDS011;37855;53.204;6.568;2023-02-11T09:19:09;16.98;;;7.25;;
51800;SDS011;37855;53.204;6.568;2023-02-11T09:21:38;20.02;;;7.55;;
51800;SDS011;37855;53.204;6.568;2023-02-11T09:29:41;20.65;;;6.93;;
51800;SDS011;37855;53.204;6.568;2023-02-11T09:32:07;19.95;;;7.30;;
51800;SDS011;37855;53.204;6.568;2023-02-11T09:34:32;22.43;;;7.57;;
51800;SDS011;37855;53.204;6.568;2023-02-11T09:37:01;25.45;;;7.80;;
51800;SDS011;37855;53.204;6.568;2023-02-11T09:39:26;17.20;;;7.07;;
51800;SDS011;37855;53.204;6.568;2023-02-11T09:44:54;15.48;;;6.88;;
51800;SDS011;37855;53.204;6.568;2023-02-11T09:47:29;18.52;;;7.40;;
51800;SDS011;37855;53.204;6.568;2023-02-11T09:53:40;21.00;;;6.68;;
51800;SDS011;37855;53.204;6.568;2023-02-11T09:59:56;17.63;;;7.15;;
51800;SDS011;37855;53.204;6.568;2023-02-11T10:02:42;17.45;;;7.65;;
51800;SDS011;37855;53.204;6.568;2023-02-11T10:05:47;17.52;;;6.97;;
51800;SDS011;37855;53.204;6.568;2023-02-11T10:13:34;15.18;;;6.68;;
51800;SDS011;37855;53.204;6.568;2023-02-11T10:19:23;20.77;;;6.55;;
51800;SDS011;37855;53.204;6.568;2023-02-11T10:22:14;15.02;;;5.70;;
51800;SDS011;37855;53.204;6.568;2023-02-11T10:24:54;22.07;;;6.40;;
51800;SDS011;37855;53.204;6.568;2023-02-11T10:27:26;18.63;;;5.97;;
51800;SDS011;37855;53.204;6.568;2023-02-11T10:30:03;13.30;;;5.20;;
51800;SDS011;37855;53.204;6.568;2023-02-11T10:32:40;23.60;;;6.40;;
51800;SDS011;37855;53.204;6.568;2023-02-11T10:35:27;14.63;;;6.20;;
51800;SDS011;37855;53.204;6.568;2023-02-11T10:37:53;20.77;;;5.47;;
51800;SDS011;37855;53.204;6.568;2023-02-11T10:40:24;18.08;;;6.22;;
51800;SDS011;37855;53.204;6.568;2023-02-11T10:42:55;17.05;;;5.15;;
51800;SDS011;37855;53.204;6.568;2023-02-11T10:45:37;16.95;;;5.20;;
51800;SDS011;37855;53.204;6.568;2023-02-11T10:48:34;13.93;;;5.10;;
51800;SDS011;37855;53.204;6.568;2023-02-11T10:51:20;13.93;;;4.97;;
51800;SDS011;37855;53.204;6.568;2023-02-11T10:53:49;19.65;;;5.30;;
51800;SDS011;37855;53.204;6.568;2023-02-11T10:56:44;14.68;;;4.82;;
51800;SDS011;37855;53.204;6.568;2023-02-11T10:59:30;15.43;;;4.45;;
51800;SDS011;37855;53.204;6.568;2023-02-11T11:02:50;13.83;;;4.00;;
51800;SDS011;37855;53.204;6.568;2023-02-11T11:05:06;14.98;;;4.10;;
51800;SDS011;37855;53.204;6.568;2023-02-11T11:07:49;15.88;;;4.45;;
51800;SDS011;37855;53.204;6.568;2023-02-11T11:11:02;14.07;;;4.10;;
51800;SDS011;37855;53.204;6.568;2023-02-11T11:16:44;14.63;;;4.00;;
51800;SDS011;37855;53.204;6.568;2023-02-11T11:19:28;14.57;;;4.32;;
51800;SDS011;37855;53.204;6.568;2023-02-11T11:22:24;16.88;;;3.75;;
51800;SDS011;37855;53.204;6.568;2023-02-11T11:25:02;15.25;;;3.42;;
51800;SDS011;37855;53.204;6.568;2023-02-11T11:27:28;16.80;;;3.88;;
51800;SDS011;37855;53.204;6.568;2023-02-11T11:29:54;14.47;;;4.10;;
51800;SDS011;37855;53.204;6.568;2023-02-11T11:32:22;15.82;;;3.83;;
51800;SDS011;37855;53.204;6.568;2023-02-11T11:48:27;14.82;;;3.10;;
51800;SDS011;37855;53.204;6.568;2023-02-11T11:51:00;14.63;;;3.33;;
51800;SDS011;37855;53.204;6.568;2023-02-11T11:53:32;13.95;;;3.67;;
51800;SDS011;37855;53.204;6.568;2023-02-11T11:56:21;16.70;;;3.50;;
51800;SDS011;37855;53.204;6.568;2023-02-11T11:58:48;15.37;;;3.30;;
51800;SDS011;37855;53.204;6.568;2023-02-11T12:07:20;13.77;;;3.05;;
51800;SDS011;37855;53.204;6.568;2023-02-11T12:16:13;17.75;;;3.13;;
51800;SDS011;37855;53.204;6.568;2023-02-11T12:21:12;12.65;;;3.13;;
51800;SDS011;37855;53.204;6.568;2023-02-11T12:26:28;11.20;;;2.80;;
51800;SDS011;37855;53.204;6.568;2023-02-11T12:32:23;17.45;;;3.22;;
51800;SDS011;37855;53.204;6.568;2023-02-11T12:37:51;12.55;;;3.25;;
51800;SDS011;37855;53.204;6.568;2023-02-11T12:45:52;12.75;;;3.17;;
51800;SDS011;37855;53.204;6.568;2023-02-11T12:56:54;12.55;;;2.72;;
51800;SDS011;37855;53.204;6.568;2023-02-11T12:59:45;19.70;;;3.15;;
51800;SDS011;37855;53.204;6.568;2023-02-11T13:03:10;12.55;;;3.10;;
51800;SDS011;37855;53.204;6.568;2023-02-11T13:05:21;14.48;;;3.25;;
51800;SDS011;37855;53.204;6.568;2023-02-11T13:07:51;12.97;;;3.00;;
51800;SDS011;37855;53.204;6.568;2023-02-11T13:10:25;20.58;;;3.42;;
51800;SDS011;37855;53.204;6.568;2023-02-11T13:21:30;17.10;;;2.80;;
51800;SDS011;37855;53.204;6.568;2023-02-11T13:24:24;16.50;;;3.50;;
51800;SDS011;37855;53.204;6.568;2023-02-11T13:27:22;17.05;;;3.30;;
51800;SDS011;37855;53.204;6.568;2023-02-11T13:30:12;17.35;;;2.78;;
51800;SDS011;37855;53.204;6.568;2023-02-11T13:37:53;16.38;;;3.22;;
51800;SDS011;37855;53.204;6.568;2023-02-11T13:40:21;20.58;;;3.45;;
51800;SDS011;37855;53.204;6.568;2023-02-11T13:42:55;13.53;;;2.97;;
51800;SDS011;37855;53.204;6.568;2023-02-11T13:47:57;14.40;;;2.80;;
51800;SDS011;37855;53.204;6.568;2023-02-11T13:50:25;15.43;;;2.72;;
51800;SDS011;37855;53.204;6.568;2023-02-11T13:53:01;16.52;;;3.05;;
51800;SDS011;37855;53.204;6.568;2023-02-11T13:55:29;12.93;;;2.63;;
51800;SDS011;37855;53.204;6.568;2023-02-11T14:15:16;14.82;;;2.60;;
51800;SDS011;37855;53.204;6.568;2023-02-11T14:17:44;14.95;;;2.80;;
51800;SDS011;37855;53.204;6.568;2023-02-11T14:27:30;13.50;;;3.20;;
51800;SDS011;37855;53.204;6.568;2023-02-11T14:41:25;11.02;;;2.75;;
51800;SDS011;37855;53.204;6.568;2023-02-11T14:43:54;17.55;;;3.00;;
51800;SDS011;37855;53.204;6.568;2023-02-11T14:46:48;14.32;;;2.85;;
51800;SDS011;37855;53.204;6.568;2023-02-11T14:49:27;13.45;;;2.92;;
51800;SDS011;37855;53.204;6.568;2023-02-11T14:51:59;11.17;;;2.47;;
51800;SDS011;37855;53.204;6.568;2023-02-11T14:54:49;19.27;;;4.72;;
51800;SDS011;37855;53.204;6.568;2023-02-11T14:58:31;13.05;;;3.08;;
51800;SDS011;37855;53.204;6.568;2023-02-11T15:09:43;14.73;;;2.63;;
51800;SDS011;37855;53.204;6.568;2023-02-11T15:12:16;13.07;;;2.75;;
51800;SDS011;37855;53.204;6.568;2023-02-11T15:14:56;16.90;;;3.33;;
51800;SDS011;37855;53.204;6.568;2023-02-11T15:17:25;17.27;;;3.03;;
51800;SDS011;37855;53.204;6.568;2023-02-11T15:20:23;17.60;;;2.90;;
51800;SDS011;37855;53.204;6.568;2023-02-11T15:23:21;19.65;;;3.20;;
51800;SDS011;37855;53.204;6.568;2023-02-11T15:25:59;13.02;;;2.70;;
51800;SDS011;37855;53.204;6.568;2023-02-11T15:28:45;17.10;;;2.75;;
51800;SDS011;37855;53.204;6.568;2023-02-11T15:31:16;11.23;;;2.83;;
51800;SDS011;37855;53.204;6.568;2023-02-11T15:34:06;18.03;;;3.17;;
51800;SDS011;37855;53.204;6.568;2023-02-11T15:36:39;16.73;;;3.17;;
51800;SDS011;37855;53.204;6.568;2023-02-11T15:39:15;13.45;;;3.45;;
51800;SDS011;37855;53.204;6.568;2023-02-11T15:48:12;15.90;;;2.60;;
51800;SDS011;37855;53.204;6.568;2023-02-11T15:54:03;14.15;;;2.70;;
51800;SDS011;37855;53.204;6.568;2023-02-11T15:56:48;13.68;;;2.60;;
51800;SDS011;37855;53.204;6.568;2023-02-11T15:59:17;11.93;;;2.53;;
51800;SDS011;37855;53.204;6.568;2023-02-11T16:01:47;13.47;;;2.80;;
51800;SDS011;37855;53.204;6.568;2023-02-11T16:04:17;17.27;;;2.88;;
51800;SDS011;37855;53.204;6.568;2023-02-11T16:06:48;16.35;;;3.15;;
51800;SDS011;37855;53.204;6.568;2023-02-11T16:19:58;21.42;;;3.45;;
51800;SDS011;37855;53.204;6.568;2023-02-11T16:22:27;16.50;;;3.27;;
51800;SDS011;37855;53.204;6.568;2023-02-11T16:25:02;17.20;;;2.80;;
51800;SDS011;37855;53.204;6.568;2023-02-11T16:31:05;16.37;;;3.00;;
51800;SDS011;37855;53.204;6.568;2023-02-11T16:33:31;15.90;;;2.88;;
51800;SDS011;37855;53.204;6.568;2023-02-11T16:38:49;14.52;;;2.63;;
51800;SDS011;37855;53.204;6.568;2023-02-11T16:41:15;18.67;;;2.88;;
51800;SDS011;37855;53.204;6.568;2023-02-11T16:44:02;15.93;;;3.13;;
51800;SDS011;37855;53.204;6.568;2023-02-11T16:46:33;16.23;;;3.00;;
51800;SDS011;37855;53.204;6.568;2023-02-11T16:49:11;15.32;;;2.65;;
51800;SDS011;37855;53.204;6.568;2023-02-11T16:51:55;13.77;;;2.95;;
51800;SDS011;37855;53.204;6.568;2023-02-11T16:54:26;18.65;;;3.20;;
51800;SDS011;37855;53.204;6.568;2023-02-11T16:56:53;20.17;;;3.40;;
51800;SDS011;37855;53.204;6.568;2023-02-11T16:59:22;16.60;;;3.00;;
51800;SDS011;37855;53.204;6.568;2023-02-11T17:01:48;14.30;;;2.88;;
51800;SDS011;37855;53.204;6.568;2023-02-11T17:04:19;14.77;;;2.80;;
51800;SDS011;37855;53.204;6.568;2023-02-11T17:06:53;14.18;;;2.45;;
51800;SDS011;37855;53.204;6.568;2023-02-11T17:09:23;17.40;;;3.20;;
51800;SDS011;37855;53.204;6.568;2023-02-11T17:11:50;15.43;;;3.10;;
51800;SDS011;37855;53.204;6.568;2023-02-11T17:14:16;14.18;;;2.40;;
51800;SDS011;37855;53.204;6.568;2023-02-11T17:16:44;12.77;;;2.67;;
51800;SDS011;37855;53.204;6.568;2023-02-11T17:19:11;14.70;;;2.77;;
51800;SDS011;37855;53.204;6.568;2023-02-11T17:21:40;12.23;;;2.50;;
51800;SDS011;37855;53.204;6.568;2023-02-11T17:24:06;18.88;;;3.53;;
51800;SDS011;37855;53.204;6.568;2023-02-11T17:26:33;15.30;;;2.78;;
51800;SDS011;37855;53.204;6.568;2023-02-11T17:29:04;12.77;;;2.92;;
51800;SDS011;37855;53.204;6.568;2023-02-11T17:31:30;10.93;;;2.97;;
51800;SDS011;37855;53.204;6.568;2023-02-11T17:33:57;17.33;;;3.55;;
51800;SDS011;37855;53.204;6.568;2023-02-11T17:36:22;13.65;;;2.92;;
51800;SDS011;37855;53.204;6.568;2023-02-11T17:38:49;15.27;;;2.95;;
51800;SDS011;37855;53.204;6.568;2023-02-11T17:41:33;12.93;;;2.93;;
51800;SDS011;37855;53.204;6.568;2023-02-11T17:44:00;14.43;;;3.20;;
51800;SDS011;37855;53.204;6.568;2023-02-11T17:46:26;12.80;;;2.90;;
51800;SDS011;37855;53.204;6.568;2023-02-11T17:48:56;15.97;;;3.27;;
51800;SDS011;37855;53.204;6.568;2023-02-11T17:53:49;18.20;;;3.30;;
51800;SDS011;37855;53.204;6.568;2023-02-11T17:56:15;15.52;;;3.50;;
51800;SDS011;37855;53.204;6.568;2023-02-11T17:58:41;16.58;;;3.28;;
51800;SDS011;37855;53.204;6.568;2023-02-11T18:01:07;16.70;;;3.43;;
51800;SDS011;37855;53.204;6.568;2023-02-11T18:03:32;14.87;;;3.17;;
51800;SDS011;37855;53.204;6.568;2023-02-11T18:06:02;16.95;;;2.95;;
51800;SDS011;37855;53.204;6.568;2023-02-11T18:08:29;15.93;;;3.83;;
51800;SDS011;37855;53.204;6.568;2023-02-11T18:10:55;15.20;;;3.20;;
51800;SDS011;37855;53.204;6.568;2023-02-11T18:13:21;16.83;;;2.83;;
51800;SDS011;37855;53.204;6.568;2023-02-11T18:15:46;15.07;;;2.90;;
51800;SDS011;37855;53.204;6.568;2023-02-11T18:18:12;18.20;;;4.40;;
51800;SDS011;37855;53.204;6.568;2023-02-11T18:20:39;18.00;;;3.10;;
51800;SDS011;37855;53.204;6.568;2023-02-11T18:23:08;17.25;;;3.75;;
51800;SDS011;37855;53.204;6.568;2023-02-11T18:25:34;14.57;;;3.30;;
51800;SDS011;37855;53.204;6.568;2023-02-11T18:28:02;18.77;;;3.33;;
51800;SDS011;37855;53.204;6.568;2023-02-11T18:30:32;17.48;;;3.63;;
51800;SDS011;37855;53.204;6.568;2023-02-11T18:32:59;18.25;;;3.40;;
51800;SDS011;37855;53.204;6.568;2023-02-11T18:35:24;14.90;;;3.57;;
51800;SDS011;37855;53.204;6.568;2023-02-11T18:37:52;20.25;;;3.47;;
51800;SDS011;37855;53.204;6.568;2023-02-11T18:40:18;17.25;;;3.88;;
51800;SDS011;37855;53.204;6.568;2023-02-11T18:42:44;14.60;;;3.10;;
51800;SDS011;37855;53.204;6.568;2023-02-11T18:45:11;13.60;;;3.53;;
51800;SDS011;37855;53.204;6.568;2023-02-11T18:47:39;13.38;;;3.50;;
51800;SDS011;37855;53.204;6.568;2023-02-11T18:50:05;17.33;;;3.67;;
51800;SDS011;37855;53.204;6.568;2023-02-11T18:52:33;15.00;;;4.07;;
51800;SDS011;37855;53.204;6.568;2023-02-11T18:55:02;26.77;;;4.32;;
51800;SDS011;37855;53.204;6.568;2023-02-11T18:57:29;16.23;;;3.97;;
51800;SDS011;37855;53.204;6.568;2023-02-11T18:59:55;18.67;;;4.22;;
51800;SDS011;37855;53.204;6.568;2023-02-11T19:02:21;19.13;;;4.07;;